sensor_id;sensor_type;location;lat;lon;timestamp;P1;durP1;ratioP1;P2;durP2;ratioP2
72813;SDS011;60945;48.516;-2.768;2023-04-15T00:00:29;4.93;;;1.60;;
72813;SDS011;60945;48.516;-2.768;2023-04-15T00:02:54;5.85;;;1.50;;
72813;SDS011;60945;48.516;-2.768;2023-04-15T00:05:20;5.78;;;1.73;;
72813;SDS011;60945;48.516;-2.768;2023-04-15T00:07:46;8.27;;;1.48;;
72813;SDS011;60945;48.516;-2.768;2023-04-15T00:10:12;7.03;;;2.00;;
72813;SDS011;60945;48.516;-2.768;2023-04-15T00:12:38;7.05;;;1.95;;
72813;SDS011;60945;48.516;-2.768;2023-04-15T00:15:05;3.60;;;1.10;;
72813;SDS011;60945;48.516;-2.768;2023-04-15T00:17:33;6.10;;;1.33;;
72813;SDS011;60945;48.516;-2.768;2023-04-15T00:19:59;5.22;;;1.52;;
72813;SDS011;60945;48.516;-2.768;2023-04-15T00:22:30;3.08;;;1.13;;
72813;SDS011;60945;48.516;-2.768;2023-04-15T00:24:56;4.50;;;1.55;;
72813;SDS011;60945;48.516;-2.768;2023-04-15T00:27:22;5.60;;;1.40;;
72813;SDS011;60945;48.516;-2.768;2023-04-15T00:29:48;6.45;;;1.48;;
72813;SDS011;60945;48.516;-2.768;2023-04-15T00:32:14;4.38;;;1.20;;
72813;SDS011;60945;48.516;-2.768;2023-04-15T00:34:40;3.95;;;1.30;;
72813;SDS011;60945;48.516;-2.768;2023-04-15T00:37:05;4.43;;;1.40;;
72813;SDS011;60945;48.516;-2.768;2023-04-15T00:39:31;5.25;;;1.20;;
72813;SDS011;60945;48.516;-2.768;2023-04-15T00:41:57;4.13;;;1.10;;
72813;SDS011;60945;48.516;-2.768;2023-04-15T00:44:22;7.47;;;1.60;;
72813;SDS011;60945;48.516;-2.768;2023-04-15T00:46:49;4.43;;;1.15;;
72813;SDS011;60945;48.516;-2.768;2023-04-15T00:49:15;5.88;;;1.30;;
72813;SDS011;60945;48.516;-2.768;2023-04-15T00:51:42;2.55;;;1.02;;
72813;SDS011;60945;48.516;-2.768;2023-04-15T00:54:08;3.45;;;1.10;;
72813;SDS011;60945;48.516;-2.768;2023-04-15T00:56:35;6.57;;;1.50;;
72813;SDS011;60945;48.516;-2.768;2023-04-15T00:59:05;8.25;;;1.30;;
72813;SDS011;60945;48.516;-2.768;2023-04-15T01:01:32;7.00;;;1.67;;
72813;SDS011;60945;48.516;-2.768;2023-04-15T01:04:02;6.35;;;1.38;;
72813;SDS011;60945;48.516;-2.768;2023-04-15T01:06:29;4.55;;;1.50;;
72813;SDS011;60945;48.516;-2.768;2023-04-15T01:08:56;5.07;;;1.10;;
72813;SDS011;60945;48.516;-2.768;2023-04-15T01:11:25;7.00;;;1.30;;
72813;SDS011;60945;48.516;-2.768;2023-04-15T01:13:51;5.82;;;1.70;;
72813;SDS011;60945;48.516;-2.768;2023-04-15T01:16:19;7.13;;;1.52;;
72813;SDS011;60945;48.516;-2.768;2023-04-15T01:18:45;7.03;;;1.20;;
72813;SDS011;60945;48.516;-2.768;2023-04-15T01:21:11;5.97;;;1.45;;
72813;SDS011;60945;48.516;-2.768;2023-04-15T01:23:37;5.68;;;1.25;;
72813;SDS011;60945;48.516;-2.768;2023-04-15T01:26:03;8.73;;;1.88;;
72813;SDS011;60945;48.516;-2.768;2023-04-15T01:28:31;9.32;;;2.35;;
72813;SDS011;60945;48.516;-2.768;2023-04-15T01:33:35;7.03;;;1.63;;
72813;SDS011;60945;48.516;-2.768;2023-04-15T01:36:02;5.47;;;1.52;;
72813;SDS011;60945;48.516;-2.768;2023-04-15T01:38:29;5.75;;;1.50;;
72813;SDS011;60945;48.516;-2.768;2023-04-15T01:40:56;6.63;;;1.48;;
72813;SDS011;60945;48.516;-2.768;2023-04-15T01:43:23;3.05;;;1.75;;
72813;SDS011;60945;48.516;-2.768;2023-04-15T01:45:49;5.40;;;1.30;;
72813;SDS011;60945;48.516;-2.768;2023-04-15T01:48:15;5.60;;;1.60;;
72813;SDS011;60945;48.516;-2.768;2023-04-15T01:50:40;7.68;;;1.70;;
72813;SDS011;60945;48.516;-2.768;2023-04-15T01:53:07;7.32;;;1.98;;
72813;SDS011;60945;48.516;-2.768;2023-04-15T01:55:33;5.55;;;1.70;;
72813;SDS011;60945;48.516;-2.768;2023-04-15T01:57:59;7.97;;;1.98;;
72813;SDS011;60945;48.516;-2.768;2023-04-15T02:00:25;5.40;;;1.60;;
72813;SDS011;60945;48.516;-2.768;2023-04-15T02:02:51;5.97;;;1.70;;
72813;SDS011;60945;48.516;-2.768;2023-04-15T02:05:17;7.28;;;2.03;;
72813;SDS011;60945;48.516;-2.768;2023-04-15T02:07:42;5.13;;;1.67;;
72813;SDS011;60945;48.516;-2.768;2023-04-15T02:10:09;8.68;;;1.77;;
72813;SDS011;60945;48.516;-2.768;2023-04-15T02:12:35;4.22;;;2.05;;
72813;SDS011;60945;48.516;-2.768;2023-04-15T02:15:01;5.97;;;1.60;;
72813;SDS011;60945;48.516;-2.768;2023-04-15T02:17:27;7.45;;;1.70;;
72813;SDS011;60945;48.516;-2.768;2023-04-15T02:19:54;6.43;;;2.00;;
72813;SDS011;60945;48.516;-2.768;2023-04-15T02:22:20;8.88;;;1.65;;
72813;SDS011;60945;48.516;-2.768;2023-04-15T02:24:46;7.18;;;2.35;;
72813;SDS011;60945;48.516;-2.768;2023-04-15T02:27:15;11.38;;;2.20;;
72813;SDS011;60945;48.516;-2.768;2023-04-15T02:29:42;9.38;;;1.70;;
72813;SDS011;60945;48.516;-2.768;2023-04-15T02:32:12;7.93;;;2.58;;
72813;SDS011;60945;48.516;-2.768;2023-04-15T02:34:40;9.23;;;1.80;;
72813;SDS011;60945;48.516;-2.768;2023-04-15T02:37:09;11.95;;;2.42;;
72813;SDS011;60945;48.516;-2.768;2023-04-15T02:39:36;6.50;;;1.98;;
72813;SDS011;60945;48.516;-2.768;2023-04-15T02:42:02;7.85;;;1.90;;
72813;SDS011;60945;48.516;-2.768;2023-04-15T02:44:29;8.18;;;1.83;;
72813;SDS011;60945;48.516;-2.768;2023-04-15T02:46:55;5.43;;;1.38;;
72813;SDS011;60945;48.516;-2.768;2023-04-15T02:49:22;7.22;;;1.55;;
72813;SDS011;60945;48.516;-2.768;2023-04-15T02:51:48;11.05;;;1.60;;
72813;SDS011;60945;48.516;-2.768;2023-04-15T02:54:18;8.98;;;2.55;;
72813;SDS011;60945;48.516;-2.768;2023-04-15T02:56:44;4.68;;;1.50;;
72813;SDS011;60945;48.516;-2.768;2023-04-15T02:59:11;9.15;;;2.35;;
72813;SDS011;60945;48.516;-2.768;2023-04-15T03:01:37;7.78;;;1.67;;
72813;SDS011;60945;48.516;-2.768;2023-04-15T03:04:02;7.95;;;1.75;;
72813;SDS011;60945;48.516;-2.768;2023-04-15T03:06:28;6.65;;;2.00;;
72813;SDS011;60945;48.516;-2.768;2023-04-15T03:08:54;4.85;;;1.20;;
72813;SDS011;60945;48.516;-2.768;2023-04-15T03:11:20;6.25;;;1.67;;
72813;SDS011;60945;48.516;-2.768;2023-04-15T03:13:46;8.07;;;2.03;;
72813;SDS011;60945;48.516;-2.768;2023-04-15T03:16:12;6.32;;;1.50;;
72813;SDS011;60945;48.516;-2.768;2023-04-15T03:18:38;6.35;;;1.50;;
72813;SDS011;60945;48.516;-2.768;2023-04-15T03:21:04;6.18;;;1.33;;
72813;SDS011;60945;48.516;-2.768;2023-04-15T03:23:30;6.95;;;2.42;;
72813;SDS011;60945;48.516;-2.768;2023-04-15T03:25:56;5.18;;;2.28;;
72813;SDS011;60945;48.516;-2.768;2023-04-15T03:28:30;11.23;;;1.50;;
72813;SDS011;60945;48.516;-2.768;2023-04-15T03:30:57;3.60;;;1.25;;
72813;SDS011;60945;48.516;-2.768;2023-04-15T03:33:23;3.80;;;1.48;;
72813;SDS011;60945;48.516;-2.768;2023-04-15T03:35:49;10.98;;;1.90;;
72813;SDS011;60945;48.516;-2.768;2023-04-15T03:38:15;8.73;;;1.60;;
72813;SDS011;60945;48.516;-2.768;2023-04-15T03:40:41;7.72;;;1.73;;
72813;SDS011;60945;48.516;-2.768;2023-04-15T03:43:10;5.05;;;1.40;;
72813;SDS011;60945;48.516;-2.768;2023-04-15T03:45:36;7.60;;;1.33;;
72813;SDS011;60945;48.516;-2.768;2023-04-15T03:48:02;6.60;;;1.40;;
72813;SDS011;60945;48.516;-2.768;2023-04-15T03:50:27;6.28;;;1.33;;
72813;SDS011;60945;48.516;-2.768;2023-04-15T03:52:53;5.75;;;1.40;;
72813;SDS011;60945;48.516;-2.768;2023-04-15T03:55:21;4.85;;;1.70;;
72813;SDS011;60945;48.516;-2.768;2023-04-15T03:57:46;7.75;;;1.40;;
72813;SDS011;60945;48.516;-2.768;2023-04-15T04:00:12;5.18;;;1.70;;
72813;SDS011;60945;48.516;-2.768;2023-04-15T04:02:38;6.03;;;1.17;;
72813;SDS011;60945;48.516;-2.768;2023-04-15T04:05:03;5.68;;;1.27;;
72813;SDS011;60945;48.516;-2.768;2023-04-15T04:07:29;5.53;;;1.60;;
72813;SDS011;60945;48.516;-2.768;2023-04-15T04:09:57;5.65;;;1.73;;
72813;SDS011;60945;48.516;-2.768;2023-04-15T04:12:23;9.82;;;1.52;;
72813;SDS011;60945;48.516;-2.768;2023-04-15T04:14:49;6.63;;;1.50;;
72813;SDS011;60945;48.516;-2.768;2023-04-15T04:17:14;5.57;;;1.60;;
72813;SDS011;60945;48.516;-2.768;2023-04-15T04:19:40;10.05;;;1.83;;
72813;SDS011;60945;48.516;-2.768;2023-04-15T04:22:05;6.65;;;1.33;;
72813;SDS011;60945;48.516;-2.768;2023-04-15T04:24:31;8.85;;;1.58;;
72813;SDS011;60945;48.516;-2.768;2023-04-15T04:26:57;7.85;;;2.58;;
72813;SDS011;60945;48.516;-2.768;2023-04-15T04:29:22;7.43;;;2.08;;
72813;SDS011;60945;48.516;-2.768;2023-04-15T04:31:48;7.57;;;1.60;;
72813;SDS011;60945;48.516;-2.768;2023-04-15T04:34:14;9.15;;;1.58;;
72813;SDS011;60945;48.516;-2.768;2023-04-15T04:36:40;6.95;;;2.05;;
72813;SDS011;60945;48.516;-2.768;2023-04-15T04:39:08;6.22;;;1.65;;
72813;SDS011;60945;48.516;-2.768;2023-04-15T04:41:34;6.60;;;1.50;;
72813;SDS011;60945;48.516;-2.768;2023-04-15T04:44:00;9.40;;;2.03;;
72813;SDS011;60945;48.516;-2.768;2023-04-15T04:46:25;7.85;;;1.83;;
72813;SDS011;60945;48.516;-2.768;2023-04-15T04:48:51;7.55;;;2.13;;
72813;SDS011;60945;48.516;-2.768;2023-04-15T04:51:17;5.95;;;2.00;;
72813;SDS011;60945;48.516;-2.768;2023-04-15T04:53:43;9.43;;;2.30;;
72813;SDS011;60945;48.516;-2.768;2023-04-15T04:56:08;5.72;;;1.67;;
72813;SDS011;60945;48.516;-2.768;2023-04-15T04:58:37;6.75;;;1.70;;
72813;SDS011;60945;48.516;-2.768;2023-04-15T05:01:03;8.45;;;1.77;;
72813;SDS011;60945;48.516;-2.768;2023-04-15T05:03:28;7.40;;;1.95;;
72813;SDS011;60945;48.516;-2.768;2023-04-15T05:05:54;7.75;;;2.05;;
72813;SDS011;60945;48.516;-2.768;2023-04-15T05:08:20;8.00;;;2.10;;
72813;SDS011;60945;48.516;-2.768;2023-04-15T05:10:46;10.02;;;2.22;;
72813;SDS011;60945;48.516;-2.768;2023-04-15T05:13:11;9.57;;;2.13;;
72813;SDS011;60945;48.516;-2.768;2023-04-15T05:15:37;7.85;;;2.17;;
72813;SDS011;60945;48.516;-2.768;2023-04-15T05:18:05;7.43;;;1.90;;
72813;SDS011;60945;48.516;-2.768;2023-04-15T05:20:31;9.48;;;1.70;;
72813;SDS011;60945;48.516;-2.768;2023-04-15T05:22:56;11.05;;;2.28;;
72813;SDS011;60945;48.516;-2.768;2023-04-15T05:25:22;11.23;;;1.50;;
72813;SDS011;60945;48.516;-2.768;2023-04-15T05:27:50;11.80;;;2.50;;
72813;SDS011;60945;48.516;-2.768;2023-04-15T05:30:19;11.43;;;2.08;;
72813;SDS011;60945;48.516;-2.768;2023-04-15T05:32:44;9.80;;;1.75;;
72813;SDS011;60945;48.516;-2.768;2023-04-15T05:35:10;6.55;;;1.60;;
72813;SDS011;60945;48.516;-2.768;2023-04-15T05:37:36;8.30;;;1.80;;
72813;SDS011;60945;48.516;-2.768;2023-04-15T05:40:04;10.43;;;1.85;;
72813;SDS011;60945;48.516;-2.768;2023-04-15T05:42:30;10.48;;;1.85;;
72813;SDS011;60945;48.516;-2.768;2023-04-15T05:44:56;10.63;;;2.28;;
72813;SDS011;60945;48.516;-2.768;2023-04-15T05:47:22;6.90;;;1.77;;
72813;SDS011;60945;48.516;-2.768;2023-04-15T05:49:47;8.45;;;1.88;;
72813;SDS011;60945;48.516;-2.768;2023-04-15T05:52:13;9.35;;;2.50;;
72813;SDS011;60945;48.516;-2.768;2023-04-15T05:54:39;7.38;;;2.47;;
72813;SDS011;60945;48.516;-2.768;2023-04-15T05:57:05;11.85;;;1.70;;
72813;SDS011;60945;48.516;-2.768;2023-04-15T05:59:31;12.05;;;2.60;;
72813;SDS011;60945;48.516;-2.768;2023-04-15T06:01:57;6.18;;;1.77;;
72813;SDS011;60945;48.516;-2.768;2023-04-15T06:04:22;8.25;;;1.90;;
72813;SDS011;60945;48.516;-2.768;2023-04-15T06:06:48;6.07;;;1.63;;
72813;SDS011;60945;48.516;-2.768;2023-04-15T06:09:14;9.40;;;1.77;;
72813;SDS011;60945;48.516;-2.768;2023-04-15T06:11:39;8.52;;;2.80;;
72813;SDS011;60945;48.516;-2.768;2023-04-15T06:14:05;11.77;;;1.92;;
72813;SDS011;60945;48.516;-2.768;2023-04-15T06:16:31;7.53;;;1.67;;
72813;SDS011;60945;48.516;-2.768;2023-04-15T06:18:56;9.43;;;1.98;;
72813;SDS011;60945;48.516;-2.768;2023-04-15T06:21:22;12.00;;;2.47;;
72813;SDS011;60945;48.516;-2.768;2023-04-15T06:23:48;9.93;;;1.90;;
72813;SDS011;60945;48.516;-2.768;2023-04-15T06:26:13;6.07;;;2.20;;
72813;SDS011;60945;48.516;-2.768;2023-04-15T06:28:39;10.35;;;3.15;;
72813;SDS011;60945;48.516;-2.768;2023-04-15T06:31:05;14.25;;;2.20;;
72813;SDS011;60945;48.516;-2.768;2023-04-15T06:33:31;6.75;;;2.30;;
72813;SDS011;60945;48.516;-2.768;2023-04-15T06:35:56;8.40;;;1.98;;
72813;SDS011;60945;48.516;-2.768;2023-04-15T06:38:22;13.45;;;3.00;;
72813;SDS011;60945;48.516;-2.768;2023-04-15T06:40:48;8.48;;;2.30;;
72813;SDS011;60945;48.516;-2.768;2023-04-15T06:43:13;8.95;;;2.03;;
72813;SDS011;60945;48.516;-2.768;2023-04-15T06:45:39;13.00;;;2.40;;
72813;SDS011;60945;48.516;-2.768;2023-04-15T06:48:05;11.93;;;2.05;;
72813;SDS011;60945;48.516;-2.768;2023-04-15T06:50:30;6.72;;;1.60;;
72813;SDS011;60945;48.516;-2.768;2023-04-15T06:52:56;10.68;;;2.17;;
72813;SDS011;60945;48.516;-2.768;2023-04-15T06:55:22;10.63;;;2.15;;
72813;SDS011;60945;48.516;-2.768;2023-04-15T06:57:48;9.75;;;2.40;;
72813;SDS011;60945;48.516;-2.768;2023-04-15T07:00:13;7.60;;;1.70;;
72813;SDS011;60945;48.516;-2.768;2023-04-15T07:02:39;8.02;;;1.77;;
72813;SDS011;60945;48.516;-2.768;2023-04-15T07:05:05;9.20;;;2.47;;
72813;SDS011;60945;48.516;-2.768;2023-04-15T07:07:31;6.80;;;1.67;;
72813;SDS011;60945;48.516;-2.768;2023-04-15T07:09:57;12.43;;;2.28;;
72813;SDS011;60945;48.516;-2.768;2023-04-15T07:12:22;6.45;;;1.70;;
72813;SDS011;60945;48.516;-2.768;2023-04-15T07:14:48;8.20;;;1.80;;
72813;SDS011;60945;48.516;-2.768;2023-04-15T07:17:14;10.88;;;1.95;;
72813;SDS011;60945;48.516;-2.768;2023-04-15T07:19:40;17.25;;;2.15;;
72813;SDS011;60945;48.516;-2.768;2023-04-15T07:22:05;7.07;;;2.00;;
72813;SDS011;60945;48.516;-2.768;2023-04-15T07:24:31;14.43;;;3.55;;
72813;SDS011;60945;48.516;-2.768;2023-04-15T07:26:57;8.35;;;2.25;;
72813;SDS011;60945;48.516;-2.768;2023-04-15T07:29:23;12.88;;;2.17;;
72813;SDS011;60945;48.516;-2.768;2023-04-15T07:31:49;10.35;;;2.13;;
72813;SDS011;60945;48.516;-2.768;2023-04-15T07:34:15;8.02;;;1.95;;
72813;SDS011;60945;48.516;-2.768;2023-04-15T07:36:41;11.95;;;2.58;;
72813;SDS011;60945;48.516;-2.768;2023-04-15T07:39:07;9.32;;;2.15;;
72813;SDS011;60945;48.516;-2.768;2023-04-15T07:41:33;6.38;;;1.90;;
72813;SDS011;60945;48.516;-2.768;2023-04-15T07:43:58;10.60;;;2.00;;
72813;SDS011;60945;48.516;-2.768;2023-04-15T07:46:24;7.53;;;1.73;;
72813;SDS011;60945;48.516;-2.768;2023-04-15T07:48:51;8.88;;;2.28;;
72813;SDS011;60945;48.516;-2.768;2023-04-15T07:51:17;6.18;;;1.70;;
72813;SDS011;60945;48.516;-2.768;2023-04-15T07:53:45;6.45;;;2.00;;
72813;SDS011;60945;48.516;-2.768;2023-04-15T07:56:11;5.07;;;1.48;;
72813;SDS011;60945;48.516;-2.768;2023-04-15T07:58:37;4.55;;;1.70;;
72813;SDS011;60945;48.516;-2.768;2023-04-15T08:01:03;7.25;;;1.70;;
72813;SDS011;60945;48.516;-2.768;2023-04-15T08:03:29;6.93;;;1.40;;
72813;SDS011;60945;48.516;-2.768;2023-04-15T08:05:55;6.50;;;1.60;;
72813;SDS011;60945;48.516;-2.768;2023-04-15T08:08:21;5.50;;;1.70;;
72813;SDS011;60945;48.516;-2.768;2023-04-15T08:10:47;3.92;;;1.27;;
72813;SDS011;60945;48.516;-2.768;2023-04-15T08:13:15;7.22;;;1.35;;
72813;SDS011;60945;48.516;-2.768;2023-04-15T08:15:41;5.38;;;1.20;;
72813;SDS011;60945;48.516;-2.768;2023-04-15T08:18:07;5.75;;;1.50;;
72813;SDS011;60945;48.516;-2.768;2023-04-15T08:20:34;6.53;;;1.30;;
72813;SDS011;60945;48.516;-2.768;2023-04-15T08:22:59;4.13;;;1.30;;
72813;SDS011;60945;48.516;-2.768;2023-04-15T08:25:25;6.75;;;1.63;;
72813;SDS011;60945;48.516;-2.768;2023-04-15T08:27:53;5.63;;;1.48;;
72813;SDS011;60945;48.516;-2.768;2023-04-15T08:30:19;4.18;;;1.10;;
72813;SDS011;60945;48.516;-2.768;2023-04-15T08:32:45;4.95;;;1.58;;
72813;SDS011;60945;48.516;-2.768;2023-04-15T08:35:11;4.07;;;1.20;;
72813;SDS011;60945;48.516;-2.768;2023-04-15T08:37:37;3.78;;;1.15;;
72813;SDS011;60945;48.516;-2.768;2023-04-15T08:40:03;2.53;;;0.90;;
72813;SDS011;60945;48.516;-2.768;2023-04-15T08:42:30;3.83;;;1.35;;
72813;SDS011;60945;48.516;-2.768;2023-04-15T08:45:00;4.20;;;1.20;;
72813;SDS011;60945;48.516;-2.768;2023-04-15T08:47:29;3.70;;;1.17;;
72813;SDS011;60945;48.516;-2.768;2023-04-15T08:49:57;5.32;;;1.30;;
72813;SDS011;60945;48.516;-2.768;2023-04-15T08:52:24;3.83;;;1.17;;
72813;SDS011;60945;48.516;-2.768;2023-04-15T08:54:51;2.88;;;1.02;;
72813;SDS011;60945;48.516;-2.768;2023-04-15T08:57:22;5.45;;;1.05;;
72813;SDS011;60945;48.516;-2.768;2023-04-15T08:59:57;3.75;;;1.13;;
72813;SDS011;60945;48.516;-2.768;2023-04-15T09:02:25;5.95;;;1.40;;
72813;SDS011;60945;48.516;-2.768;2023-04-15T09:04:51;4.47;;;1.10;;
72813;SDS011;60945;48.516;-2.768;2023-04-15T09:07:17;2.88;;;0.82;;
72813;SDS011;60945;48.516;-2.768;2023-04-15T09:09:43;3.83;;;0.80;;
72813;SDS011;60945;48.516;-2.768;2023-04-15T09:12:10;2.90;;;0.90;;
72813;SDS011;60945;48.516;-2.768;2023-04-15T09:14:36;2.00;;;0.70;;
72813;SDS011;60945;48.516;-2.768;2023-04-15T09:17:04;2.28;;;0.70;;
72813;SDS011;60945;48.516;-2.768;2023-04-15T09:19:33;2.78;;;0.80;;
72813;SDS011;60945;48.516;-2.768;2023-04-15T09:21:59;1.85;;;0.80;;
72813;SDS011;60945;48.516;-2.768;2023-04-15T09:24:32;3.15;;;1.10;;
72813;SDS011;60945;48.516;-2.768;2023-04-15T09:27:01;3.78;;;1.20;;
72813;SDS011;60945;48.516;-2.768;2023-04-15T09:29:27;5.38;;;1.27;;
72813;SDS011;60945;48.516;-2.768;2023-04-15T09:31:53;3.42;;;0.98;;
72813;SDS011;60945;48.516;-2.768;2023-04-15T09:34:19;3.35;;;1.10;;
72813;SDS011;60945;48.516;-2.768;2023-04-15T09:36:54;5.13;;;1.30;;
72813;SDS011;60945;48.516;-2.768;2023-04-15T09:39:21;6.78;;;1.00;;
72813;SDS011;60945;48.516;-2.768;2023-04-15T09:42:08;3.65;;;1.30;;
72813;SDS011;60945;48.516;-2.768;2023-04-15T09:44:33;2.50;;;0.90;;
72813;SDS011;60945;48.516;-2.768;2023-04-15T09:46:59;2.65;;;1.00;;
72813;SDS011;60945;48.516;-2.768;2023-04-15T09:49:25;2.47;;;1.10;;
72813;SDS011;60945;48.516;-2.768;2023-04-15T09:51:56;3.17;;;1.08;;
72813;SDS011;60945;48.516;-2.768;2023-04-15T09:54:30;2.58;;;1.13;;
72813;SDS011;60945;48.516;-2.768;2023-04-15T09:57:07;3.53;;;1.17;;
72813;SDS011;60945;48.516;-2.768;2023-04-15T09:59:34;4.30;;;1.10;;
72813;SDS011;60945;48.516;-2.768;2023-04-15T10:02:00;3.75;;;1.38;;
72813;SDS011;60945;48.516;-2.768;2023-04-15T10:04:38;2.90;;;1.02;;
72813;SDS011;60945;48.516;-2.768;2023-04-15T10:07:06;5.18;;;1.40;;
72813;SDS011;60945;48.516;-2.768;2023-04-15T10:09:34;2.47;;;1.10;;
72813;SDS011;60945;48.516;-2.768;2023-04-15T10:12:02;6.50;;;1.70;;
72813;SDS011;60945;48.516;-2.768;2023-04-15T10:14:31;4.60;;;1.40;;
72813;SDS011;60945;48.516;-2.768;2023-04-15T10:16:58;4.88;;;1.88;;
72813;SDS011;60945;48.516;-2.768;2023-04-15T10:19:26;3.60;;;1.45;;
72813;SDS011;60945;48.516;-2.768;2023-04-15T10:21:55;2.63;;;1.20;;
72813;SDS011;60945;48.516;-2.768;2023-04-15T10:24:21;3.60;;;1.52;;
72813;SDS011;60945;48.516;-2.768;2023-04-15T10:26:48;3.45;;;1.50;;
72813;SDS011;60945;48.516;-2.768;2023-04-15T10:29:15;2.95;;;1.27;;
72813;SDS011;60945;48.516;-2.768;2023-04-15T10:31:42;2.90;;;1.50;;
72813;SDS011;60945;48.516;-2.768;2023-04-15T10:34:08;5.20;;;1.10;;
72813;SDS011;60945;48.516;-2.768;2023-04-15T10:36:35;3.55;;;1.30;;
72813;SDS011;60945;48.516;-2.768;2023-04-15T10:39:37;2.90;;;1.60;;
72813;SDS011;60945;48.516;-2.768;2023-04-15T10:42:05;5.60;;;1.70;;
72813;SDS011;60945;48.516;-2.768;2023-04-15T10:44:32;4.55;;;1.42;;
72813;SDS011;60945;48.516;-2.768;2023-04-15T10:47:00;3.40;;;1.25;;
72813;SDS011;60945;48.516;-2.768;2023-04-15T10:49:31;3.25;;;1.55;;
72813;SDS011;60945;48.516;-2.768;2023-04-15T10:52:00;3.70;;;1.48;;
72813;SDS011;60945;48.516;-2.768;2023-04-15T10:59:37;3.40;;;1.33;;
72813;SDS011;60945;48.516;-2.768;2023-04-15T11:05:08;2.53;;;1.58;;
72813;SDS011;60945;48.516;-2.768;2023-04-15T11:12:44;4.00;;;1.65;;
72813;SDS011;60945;48.516;-2.768;2023-04-15T11:15:24;3.47;;;1.52;;
72813;SDS011;60945;48.516;-2.768;2023-04-15T11:20:50;3.13;;;1.45;;
72813;SDS011;60945;48.516;-2.768;2023-04-15T11:23:40;3.35;;;1.73;;
72813;SDS011;60945;48.516;-2.768;2023-04-15T11:26:15;6.05;;;2.08;;
72813;SDS011;60945;48.516;-2.768;2023-04-15T11:28:42;3.38;;;1.55;;
72813;SDS011;60945;48.516;-2.768;2023-04-15T11:33:35;3.60;;;1.88;;
72813;SDS011;60945;48.516;-2.768;2023-04-15T11:36:02;4.03;;;1.85;;
72813;SDS011;60945;48.516;-2.768;2023-04-15T11:38:28;3.33;;;1.90;;
72813;SDS011;60945;48.516;-2.768;2023-04-15T11:40:53;3.05;;;2.10;;
72813;SDS011;60945;48.516;-2.768;2023-04-15T11:43:20;4.32;;;1.73;;
72813;SDS011;60945;48.516;-2.768;2023-04-15T11:48:12;5.95;;;2.33;;
72813;SDS011;60945;48.516;-2.768;2023-04-15T11:50:38;4.55;;;2.08;;
72813;SDS011;60945;48.516;-2.768;2023-04-15T11:53:06;4.47;;;2.20;;
72813;SDS011;60945;48.516;-2.768;2023-04-15T11:55:42;3.95;;;2.10;;
72813;SDS011;60945;48.516;-2.768;2023-04-15T12:00:40;3.80;;;1.98;;
72813;SDS011;60945;48.516;-2.768;2023-04-15T12:11:49;4.18;;;2.55;;
72813;SDS011;60945;48.516;-2.768;2023-04-15T12:16:58;4.40;;;2.40;;
72813;SDS011;60945;48.516;-2.768;2023-04-15T12:22:04;4.95;;;2.45;;
72813;SDS011;60945;48.516;-2.768;2023-04-15T12:24:37;3.80;;;2.10;;
72813;SDS011;60945;48.516;-2.768;2023-04-15T12:27:04;5.30;;;2.63;;
72813;SDS011;60945;48.516;-2.768;2023-04-15T12:29:31;3.80;;;2.47;;
72813;SDS011;60945;48.516;-2.768;2023-04-15T12:34:34;3.15;;;2.33;;
72813;SDS011;60945;48.516;-2.768;2023-04-15T12:37:02;2.83;;;2.40;;
72813;SDS011;60945;48.516;-2.768;2023-04-15T12:39:36;3.35;;;2.28;;
72813;SDS011;60945;48.516;-2.768;2023-04-15T12:42:03;2.95;;;2.28;;
72813;SDS011;60945;48.516;-2.768;2023-04-15T12:44:29;4.60;;;2.97;;
72813;SDS011;60945;48.516;-2.768;2023-04-15T12:46:55;4.15;;;2.65;;
72813;SDS011;60945;48.516;-2.768;2023-04-15T12:49:21;4.00;;;2.70;;
72813;SDS011;60945;48.516;-2.768;2023-04-15T12:51:48;3.25;;;2.67;;
72813;SDS011;60945;48.516;-2.768;2023-04-15T12:54:16;3.80;;;2.45;;
72813;SDS011;60945;48.516;-2.768;2023-04-15T12:56:42;3.65;;;3.20;;
72813;SDS011;60945;48.516;-2.768;2023-04-15T12:59:08;5.13;;;2.78;;
72813;SDS011;60945;48.516;-2.768;2023-04-15T13:01:33;3.15;;;2.80;;
72813;SDS011;60945;48.516;-2.768;2023-04-15T13:04:00;3.83;;;2.75;;
72813;SDS011;60945;48.516;-2.768;2023-04-15T13:06:26;4.10;;;3.13;;
72813;SDS011;60945;48.516;-2.768;2023-04-15T13:08:53;3.58;;;2.35;;
72813;SDS011;60945;48.516;-2.768;2023-04-15T13:11:19;4.90;;;2.75;;
72813;SDS011;60945;48.516;-2.768;2023-04-15T13:13:46;3.53;;;2.60;;
72813;SDS011;60945;48.516;-2.768;2023-04-15T13:16:12;3.40;;;2.33;;
72813;SDS011;60945;48.516;-2.768;2023-04-15T13:18:38;4.50;;;2.60;;
72813;SDS011;60945;48.516;-2.768;2023-04-15T13:21:03;3.80;;;2.38;;
72813;SDS011;60945;48.516;-2.768;2023-04-15T13:23:31;4.75;;;2.60;;
72813;SDS011;60945;48.516;-2.768;2023-04-15T13:25:57;3.95;;;2.53;;
72813;SDS011;60945;48.516;-2.768;2023-04-15T13:28:23;4.45;;;2.63;;
72813;SDS011;60945;48.516;-2.768;2023-04-15T13:30:49;6.47;;;2.92;;
72813;SDS011;60945;48.516;-2.768;2023-04-15T13:33:15;3.47;;;2.10;;
72813;SDS011;60945;48.516;-2.768;2023-04-15T13:35:42;3.47;;;2.63;;
72813;SDS011;60945;48.516;-2.768;2023-04-15T13:38:07;3.67;;;2.72;;
72813;SDS011;60945;48.516;-2.768;2023-04-15T13:40:33;3.05;;;2.70;;
72813;SDS011;60945;48.516;-2.768;2023-04-15T13:42:59;3.55;;;2.10;;
72813;SDS011;60945;48.516;-2.768;2023-04-15T13:45:25;3.47;;;2.60;;
72813;SDS011;60945;48.516;-2.768;2023-04-15T13:47:50;3.95;;;2.78;;
72813;SDS011;60945;48.516;-2.768;2023-04-15T13:50:19;5.65;;;2.70;;
72813;SDS011;60945;48.516;-2.768;2023-04-15T13:52:47;3.47;;;2.50;;
72813;SDS011;60945;48.516;-2.768;2023-04-15T13:55:12;3.28;;;1.85;;
72813;SDS011;60945;48.516;-2.768;2023-04-15T13:57:38;4.05;;;2.63;;
72813;SDS011;60945;48.516;-2.768;2023-04-15T14:00:04;2.88;;;2.20;;
72813;SDS011;60945;48.516;-2.768;2023-04-15T14:02:30;3.75;;;2.60;;
72813;SDS011;60945;48.516;-2.768;2023-04-15T14:04:56;5.15;;;3.10;;
72813;SDS011;60945;48.516;-2.768;2023-04-15T14:07:22;4.75;;;3.00;;
72813;SDS011;60945;48.516;-2.768;2023-04-15T14:09:47;6.07;;;3.20;;
72813;SDS011;60945;48.516;-2.768;2023-04-15T14:12:13;5.85;;;3.47;;
72813;SDS011;60945;48.516;-2.768;2023-04-15T14:14:43;5.25;;;3.65;;
72813;SDS011;60945;48.516;-2.768;2023-04-15T14:17:09;6.68;;;3.67;;
72813;SDS011;60945;48.516;-2.768;2023-04-15T14:19:35;5.07;;;3.30;;
72813;SDS011;60945;48.516;-2.768;2023-04-15T14:22:01;5.07;;;3.33;;
72813;SDS011;60945;48.516;-2.768;2023-04-15T14:24:27;4.13;;;3.17;;
72813;SDS011;60945;48.516;-2.768;2023-04-15T14:26:53;4.95;;;3.22;;
72813;SDS011;60945;48.516;-2.768;2023-04-15T14:29:18;4.82;;;3.35;;
72813;SDS011;60945;48.516;-2.768;2023-04-15T14:31:44;5.57;;;3.90;;
72813;SDS011;60945;48.516;-2.768;2023-04-15T14:34:10;5.60;;;3.55;;
72813;SDS011;60945;48.516;-2.768;2023-04-15T14:36:36;5.47;;;3.50;;
72813;SDS011;60945;48.516;-2.768;2023-04-15T14:39:02;6.15;;;3.65;;
72813;SDS011;60945;48.516;-2.768;2023-04-15T14:41:28;5.47;;;3.70;;
72813;SDS011;60945;48.516;-2.768;2023-04-15T14:43:54;4.97;;;3.50;;
72813;SDS011;60945;48.516;-2.768;2023-04-15T14:46:20;5.13;;;3.50;;
72813;SDS011;60945;48.516;-2.768;2023-04-15T14:48:46;3.75;;;2.95;;
72813;SDS011;60945;48.516;-2.768;2023-04-15T14:51:12;4.40;;;3.20;;
72813;SDS011;60945;48.516;-2.768;2023-04-15T14:53:38;4.57;;;3.50;;
72813;SDS011;60945;48.516;-2.768;2023-04-15T14:56:03;5.63;;;3.30;;
72813;SDS011;60945;48.516;-2.768;2023-04-15T14:58:29;4.25;;;2.95;;
72813;SDS011;60945;48.516;-2.768;2023-04-15T15:00:56;4.60;;;3.15;;
72813;SDS011;60945;48.516;-2.768;2023-04-15T15:03:22;3.67;;;2.30;;
72813;SDS011;60945;48.516;-2.768;2023-04-15T15:05:47;3.70;;;2.40;;
72813;SDS011;60945;48.516;-2.768;2023-04-15T15:08:13;4.82;;;2.50;;
72813;SDS011;60945;48.516;-2.768;2023-04-15T15:10:39;3.85;;;1.90;;
72813;SDS011;60945;48.516;-2.768;2023-04-15T15:13:06;5.00;;;2.30;;